createdAt,value
2023-03-16T00:01:10.147Z,47.92
2023-03-16T00:03:37.078Z,48.18
2023-03-16T00:06:04.562Z,48.14
2023-03-16T00:08:31.666Z,48.46
2023-03-16T00:10:58.836Z,48.34
2023-03-16T00:13:25.893Z,48.54
2023-03-16T00:16:04.690Z,48.38
2023-03-16T00:18:39.024Z,48.25
2023-03-16T00:21:07.044Z,48.45
2023-03-16T00:23:38.145Z,48.38
2023-03-16T00:26:09.236Z,48.60
2023-03-16T00:28:36.985Z,48.44
2023-03-16T00:31:12.226Z,48.49
2023-03-16T00:33:40.046Z,48.69
2023-03-16T00:36:09.593Z,48.68
2023-03-16T00:38:39.326Z,48.60
2023-03-16T00:41:09.444Z,49.01
2023-03-16T00:43:41.240Z,48.73
2023-03-16T00:46:10.533Z,48.56
2023-03-16T00:48:40.111Z,48.82
2023-03-16T00:51:09.874Z,49.06
2023-03-16T00:53:37.304Z,48.90
2023-03-16T00:56:04.683Z,48.97
2023-03-16T00:58:36.153Z,49.11
2023-03-16T01:01:06.879Z,49.08
2023-03-16T01:03:34.670Z,49.03
2023-03-16T01:06:06.663Z,49.13
2023-03-16T01:08:33.716Z,49.15
2023-03-16T01:11:22.251Z,49.23
2023-03-16T01:13:51.004Z,49.09
2023-03-16T01:16:19.302Z,49.10
2023-03-16T01:18:47.037Z,48.95
2023-03-16T01:21:16.905Z,49.01
2023-03-16T01:23:44.505Z,49.11
2023-03-16T01:26:11.791Z,49.31
2023-03-16T01:28:39.246Z,48.98
2023-03-16T01:31:11.841Z,49.18
2023-03-16T01:33:39.303Z,49.27
2023-03-16T01:36:13.240Z,49.24
2023-03-16T01:38:40.165Z,49.37
2023-03-16T01:41:07.786Z,49.51
2023-03-16T01:43:37.731Z,49.49
2023-03-16T01:46:07.685Z,49.56
2023-03-16T01:48:56.269Z,49.61
2023-03-16T01:51:27.954Z,49.39
2023-03-16T01:53:59.473Z,49.29
2023-03-16T01:56:40.171Z,49.45
2023-03-16T01:59:14.357Z,49.53
2023-03-16T02:01:41.682Z,49.62
2023-03-16T02:04:25.464Z,49.43
2023-03-16T02:06:55.285Z,49.50
2023-03-16T02:09:22.631Z,49.45
2023-03-16T02:11:50.345Z,49.90
2023-03-16T02:14:17.363Z,49.55
2023-03-16T02:16:45.163Z,49.65
2023-03-16T02:19:20.213Z,49.71
2023-03-16T02:21:54.830Z,49.79
2023-03-16T02:24:22.379Z,49.86
2023-03-16T02:27:10.969Z,49.70
2023-03-16T02:29:53.168Z,49.52
2023-03-16T02:32:21.873Z,49.83
2023-03-16T02:34:48.890Z,49.62
2023-03-16T02:37:15.912Z,49.62
2023-03-16T02:39:45.598Z,49.64
2023-03-16T02:42:17.144Z,49.82
2023-03-16T02:44:51.216Z,49.99
2023-03-16T02:47:41.848Z,49.91
2023-03-16T02:50:10.887Z,49.97
2023-03-16T02:52:38.923Z,49.65
2023-03-16T02:55:07.690Z,50.03
2023-03-16T02:57:34.936Z,50.18
2023-03-16T03:00:01.790Z,49.98
2023-03-16T03:02:28.676Z,49.93
2023-03-16T03:04:55.516Z,50.01
2023-03-16T03:07:22.431Z,49.91
2023-03-16T03:09:49.229Z,49.95
2023-03-16T03:12:16.096Z,50.22
2023-03-16T03:14:42.881Z,50.01
2023-03-16T03:17:10.603Z,50.18
2023-03-16T03:19:37.607Z,50.27
2023-03-16T03:22:06.623Z,50.25
2023-03-16T03:24:34.903Z,50.23
2023-03-16T03:27:06.066Z,50.26
2023-03-16T03:29:36.367Z,50.14
2023-03-16T03:32:06.856Z,50.16
2023-03-16T03:34:33.948Z,50.21
2023-03-16T03:37:01.389Z,50.26
2023-03-16T03:39:28.242Z,50.32
2023-03-16T03:41:55.081Z,50.35
2023-03-16T03:44:23.323Z,50.19
2023-03-16T03:46:51.787Z,50.16
2023-03-16T03:49:18.615Z,50.38
2023-03-16T03:51:45.504Z,50.24
2023-03-16T03:54:12.342Z,50.29
2023-03-16T03:56:39.162Z,50.28
2023-03-16T03:59:06.000Z,50.46
2023-03-16T04:01:33.091Z,49.98
2023-03-16T04:03:59.934Z,50.24
2023-03-16T04:06:26.847Z,50.39
2023-03-16T04:08:54.544Z,50.37
2023-03-16T04:11:22.049Z,50.13
2023-03-16T04:13:53.621Z,50.20
2023-03-16T04:16:21.516Z,50.03
2023-03-16T04:18:48.434Z,50.14
2023-03-16T04:21:17.483Z,49.97
2023-03-16T04:23:44.697Z,49.98
2023-03-16T04:26:11.798Z,49.92
2023-03-16T04:28:39.093Z,50.11
2023-03-16T04:31:08.767Z,50.20
2023-03-16T04:33:37.670Z,49.93
2023-03-16T04:36:05.880Z,50.05
2023-03-16T04:38:36.651Z,50.08
2023-03-16T04:41:05.945Z,50.32
2023-03-16T04:43:34.641Z,49.97
2023-03-16T04:46:02.634Z,50.11
2023-03-16T04:48:30.226Z,50.03
2023-03-16T04:50:57.115Z,49.90
2023-03-16T04:53:24.008Z,49.98
2023-03-16T04:55:51.546Z,49.95
2023-03-16T04:58:18.438Z,49.85
2023-03-16T05:00:45.799Z,50.05
2023-03-16T05:03:12.688Z,49.76
2023-03-16T05:05:40.083Z,49.95
2023-03-16T05:08:07.593Z,49.88
2023-03-16T05:10:34.975Z,49.95
2023-03-16T05:13:01.862Z,50.10
2023-03-16T05:15:28.759Z,49.99
2023-03-16T05:17:56.342Z,49.70
2023-03-16T05:20:24.243Z,49.80
2023-03-16T05:22:51.746Z,49.73
2023-03-16T05:25:20.033Z,49.89
2023-03-16T05:27:50.005Z,49.74
2023-03-16T05:30:18.894Z,49.60
2023-03-16T05:32:46.419Z,49.48
2023-03-16T05:35:13.973Z,49.98
2023-03-16T05:37:41.672Z,49.91
2023-03-16T05:40:23.247Z,49.93
2023-03-16T05:42:55.026Z,50.31
2023-03-16T05:45:21.886Z,50.23
2023-03-16T05:47:49.416Z,49.99
2023-03-16T05:50:17.166Z,50.04
2023-03-16T05:52:45.602Z,50.37
2023-03-16T05:55:14.914Z,50.05
2023-03-16T05:57:42.378Z,50.00
2023-03-16T06:00:15.759Z,50.34
2023-03-16T06:02:51.501Z,50.25
2023-03-16T06:05:20.248Z,50.33
2023-03-16T06:07:47.136Z,50.34
2023-03-16T06:10:14.756Z,50.49
2023-03-16T06:12:41.635Z,50.41
2023-03-16T06:15:10.691Z,50.68
2023-03-16T06:17:39.009Z,50.53
2023-03-16T06:20:11.520Z,50.55
2023-03-16T06:22:40.541Z,50.58
2023-03-16T06:25:08.759Z,51.06
2023-03-16T06:27:36.046Z,51.04
2023-03-16T06:30:03.516Z,50.98
2023-03-16T06:32:30.452Z,51.15
2023-03-16T06:34:59.755Z,50.74
2023-03-16T06:37:26.624Z,48.30
2023-03-16T06:39:54.077Z,50.03
2023-03-16T06:42:20.906Z,50.20
2023-03-16T06:44:47.727Z,50.33
2023-03-16T06:47:14.592Z,50.56
2023-03-16T06:49:41.758Z,50.29
2023-03-16T06:52:10.807Z,50.49
2023-03-16T06:54:37.853Z,50.26
2023-03-16T06:57:04.896Z,50.02
2023-03-16T06:59:32.122Z,50.29
2023-03-16T07:01:59.168Z,50.04
2023-03-16T07:04:26.063Z,50.26
2023-03-16T07:06:52.938Z,49.79
2023-03-16T07:09:19.927Z,49.98
2023-03-16T07:11:46.845Z,50.05
2023-03-16T07:14:13.830Z,49.96
2023-03-16T07:16:40.985Z,50.18
2023-03-16T07:19:07.907Z,50.56
2023-03-16T07:21:40.191Z,51.44
2023-03-16T07:24:09.234Z,52.27
2023-03-16T07:26:36.754Z,52.23
2023-03-16T07:29:06.565Z,52.93
2023-03-16T07:31:35.014Z,52.59
2023-03-16T07:34:03.929Z,52.72
2023-03-16T07:36:30.840Z,52.77
2023-03-16T07:38:57.962Z,52.51
2023-03-16T07:41:25.693Z,52.80
2023-03-16T07:43:53.920Z,52.89
2023-03-16T07:46:21.287Z,52.94
2023-03-16T07:48:48.235Z,52.90
2023-03-16T07:51:15.749Z,52.84
2023-03-16T07:53:42.726Z,52.85
2023-03-16T07:56:09.730Z,53.00
2023-03-16T07:58:36.893Z,53.04
2023-03-16T08:01:04.307Z,52.96
2023-03-16T08:03:32.424Z,53.03
2023-03-16T08:06:01.979Z,53.14
2023-03-16T08:08:28.902Z,53.02
2023-03-16T08:10:56.763Z,53.34
2023-03-16T08:13:24.224Z,53.06
2023-03-16T08:16:02.297Z,53.17
2023-03-16T08:18:30.428Z,53.36
2023-03-16T08:20:58.264Z,53.25
2023-03-16T08:23:26.209Z,53.30
2023-03-16T08:25:58.383Z,53.57
2023-03-16T08:28:26.447Z,53.38
2023-03-16T08:30:56.291Z,53.21
2023-03-16T08:33:23.882Z,53.29
2023-03-16T08:35:51.264Z,53.27
2023-03-16T08:38:19.573Z,53.29
2023-03-16T08:40:50.070Z,53.43
2023-03-16T08:43:19.343Z,53.23
2023-03-16T08:45:47.459Z,53.39
2023-03-16T08:48:15.203Z,53.35
2023-03-16T08:50:44.443Z,53.53
2023-03-16T08:53:13.934Z,53.38
2023-03-16T08:55:45.398Z,53.26
2023-03-16T08:58:14.308Z,53.45
2023-03-16T09:00:41.994Z,53.56
2023-03-16T09:03:11.589Z,53.28
2023-03-16T09:05:38.546Z,53.23
2023-03-16T09:08:06.692Z,53.38
2023-03-16T09:10:34.066Z,53.33
2023-03-16T09:13:01.038Z,53.29
2023-03-16T09:15:29.459Z,53.48
2023-03-16T09:17:58.356Z,53.44
2023-03-16T09:20:29.615Z,53.33
2023-03-16T09:22:57.839Z,53.52
2023-03-16T09:25:26.451Z,53.68
2023-03-16T09:27:54.258Z,53.67
2023-03-16T09:30:21.354Z,53.44
2023-03-16T09:32:49.361Z,53.40
2023-03-16T09:35:16.489Z,53.62
2023-03-16T09:38:01.149Z,53.37
2023-03-16T09:40:32.270Z,53.50
2023-03-16T09:43:11.551Z,53.30
2023-03-16T09:45:55.799Z,53.83
2023-03-16T09:48:27.664Z,53.29
2023-03-16T09:51:00.413Z,53.41
2023-03-16T09:53:38.490Z,53.30
2023-03-16T09:56:11.218Z,53.47
2023-03-16T09:58:38.824Z,53.43
2023-03-16T10:01:40.892Z,53.38
2023-03-16T10:04:25.892Z,53.63
2023-03-16T10:07:04.828Z,53.64
2023-03-16T10:09:55.853Z,53.54
2023-03-16T10:12:30.616Z,53.37
2023-03-16T10:15:05.281Z,53.59
2023-03-16T10:17:42.051Z,53.43
2023-03-16T10:20:18.010Z,53.63
2023-03-16T10:22:47.729Z,53.54
2023-03-16T10:25:44.660Z,53.26
2023-03-16T10:28:20.199Z,53.49
2023-03-16T10:30:50.552Z,53.49
2023-03-16T10:33:30.149Z,53.79
2023-03-16T10:36:16.039Z,53.51
2023-03-16T10:38:49.903Z,53.67
2023-03-16T10:41:20.768Z,53.56
2023-03-16T10:43:55.996Z,53.75
2023-03-16T10:46:26.280Z,53.59
2023-03-16T10:49:01.843Z,53.78
2023-03-16T10:51:36.878Z,53.76
2023-03-16T10:54:25.182Z,53.62
2023-03-16T10:56:53.832Z,53.56
2023-03-16T10:59:35.459Z,53.68
2023-03-16T11:02:15.269Z,53.65
2023-03-16T11:04:42.781Z,53.73
2023-03-16T11:07:18.042Z,53.52
2023-03-16T11:09:47.701Z,53.71
2023-03-16T11:12:24.650Z,53.56
2023-03-16T11:14:52.440Z,53.58
2023-03-16T11:17:43.729Z,53.68
2023-03-16T11:20:23.813Z,53.78
2023-03-16T11:22:54.903Z,53.82
2023-03-16T11:25:30.753Z,53.82
2023-03-16T11:28:12.827Z,53.44
2023-03-16T11:31:05.504Z,53.42
2023-03-16T11:33:35.609Z,53.52
2023-03-16T11:36:21.711Z,53.71
2023-03-16T11:39:00.857Z,53.58
2023-03-16T11:41:55.989Z,53.60
2023-03-16T11:44:44.911Z,53.59
2023-03-16T11:47:30.600Z,53.69
2023-03-16T11:50:27.656Z,53.72
2023-03-16T11:53:14.211Z,53.67
2023-03-16T11:56:10.143Z,53.74
2023-03-16T11:58:38.031Z,53.71
2023-03-16T12:01:23.717Z,53.96
2023-03-16T12:04:11.448Z,53.84
2023-03-16T12:06:44.463Z,53.88
2023-03-16T12:09:44.993Z,53.89
2023-03-16T12:12:24.214Z,53.87
2023-03-16T12:15:33.797Z,53.74
2023-03-16T12:18:16.190Z,53.60
2023-03-16T12:20:56.581Z,53.58
2023-03-16T12:23:50.788Z,53.71
2023-03-16T12:26:19.802Z,53.65
2023-03-16T12:28:48.602Z,53.94
2023-03-16T12:31:43.360Z,53.65
2023-03-16T12:34:28.478Z,53.82
2023-03-16T12:37:14.697Z,53.85
2023-03-16T12:40:29.202Z,53.94
2023-03-16T12:43:24.243Z,53.96
2023-03-16T12:46:06.494Z,53.80
2023-03-16T12:48:40.873Z,54.15
2023-03-16T12:51:08.138Z,53.90
2023-03-16T12:53:56.188Z,54.02
2023-03-16T12:56:32.955Z,54.02
2023-03-16T12:59:06.074Z,54.14
2023-03-16T13:01:43.999Z,54.13
2023-03-16T13:04:23.794Z,54.19
2023-03-16T13:07:03.439Z,54.25
2023-03-16T13:09:34.560Z,53.90
2023-03-16T13:12:05.292Z,54.09
2023-03-16T13:14:43.118Z,54.00
2023-03-16T13:17:16.742Z,54.12
2023-03-16T13:19:48.033Z,54.23
2023-03-16T13:22:29.467Z,54.22
2023-03-16T13:25:00.928Z,54.17
2023-03-16T13:27:30.374Z,54.02
2023-03-16T13:30:00.545Z,54.00
2023-03-16T13:32:32.486Z,54.28
2023-03-16T13:35:02.810Z,54.13
2023-03-16T13:37:30.620Z,54.25
2023-03-16T13:40:03.330Z,54.34
2023-03-16T13:42:33.012Z,54.41
2023-03-16T13:45:11.554Z,54.32
2023-03-16T13:47:44.124Z,54.17
2023-03-16T13:50:13.033Z,54.15
2023-03-16T13:52:40.533Z,54.10
2023-03-16T13:55:16.515Z,54.37
2023-03-16T13:57:45.819Z,54.31
2023-03-16T14:00:44.193Z,54.50
2023-03-16T14:03:17.990Z,54.25
2023-03-16T14:05:45.978Z,54.25
2023-03-16T14:08:19.130Z,54.37
2023-03-16T14:10:47.188Z,54.31
2023-03-16T14:13:29.536Z,54.58
2023-03-16T14:16:13.491Z,54.40
2023-03-16T14:18:56.208Z,54.16
2023-03-16T14:21:26.165Z,54.33
2023-03-16T14:24:06.124Z,54.24
2023-03-16T14:26:48.384Z,54.73
2023-03-16T14:29:25.144Z,54.54
2023-03-16T14:31:52.070Z,54.59
2023-03-16T14:34:36.475Z,54.42
2023-03-16T14:37:16.171Z,54.63
2023-03-16T14:39:43.824Z,54.68
2023-03-16T14:42:27.888Z,54.42
2023-03-16T14:44:56.894Z,54.38
2023-03-16T14:47:31.104Z,54.45
2023-03-16T14:50:04.776Z,54.57
2023-03-16T14:52:31.952Z,54.50
2023-03-16T14:55:03.011Z,54.68
2023-03-16T14:57:30.762Z,54.74
2023-03-16T14:59:57.708Z,54.60
2023-03-16T15:02:30.954Z,54.62
2023-03-16T15:05:01.477Z,54.53
2023-03-16T15:07:31.643Z,54.63
2023-03-16T15:10:10.746Z,54.66
2023-03-16T15:12:38.242Z,54.41
2023-03-16T15:15:25.434Z,54.42
2023-03-16T15:17:55.284Z,54.87
2023-03-16T15:20:25.992Z,54.43
2023-03-16T15:22:53.921Z,54.43
2023-03-16T15:25:38.674Z,54.48
2023-03-16T15:28:19.146Z,56.52
2023-03-16T15:30:57.702Z,57.07
2023-03-16T15:33:26.030Z,57.97
2023-03-16T15:35:58.957Z,57.40
2023-03-16T15:38:29.428Z,57.32
2023-03-16T15:40:56.578Z,57.68
2023-03-16T15:43:27.500Z,56.97
2023-03-16T15:45:56.604Z,56.37
2023-03-16T15:48:24.739Z,56.04
2023-03-16T15:51:02.410Z,55.80
2023-03-16T15:53:36.098Z,55.71
2023-03-16T15:56:09.720Z,55.52
2023-03-16T15:58:38.369Z,55.48
2023-03-16T16:01:08.110Z,55.48
2023-03-16T16:03:35.260Z,55.24
2023-03-16T16:06:02.664Z,55.29
2023-03-16T16:08:29.684Z,55.06
2023-03-16T16:10:57.489Z,55.05
2023-03-16T16:13:44.770Z,55.10
2023-03-16T16:16:18.426Z,55.67
2023-03-16T16:18:46.910Z,56.09
2023-03-16T16:21:27.200Z,56.31
2023-03-16T16:23:54.686Z,56.18
2023-03-16T16:26:55.275Z,56.20
2023-03-16T16:29:27.461Z,56.33
2023-03-16T16:31:55.615Z,55.95
2023-03-16T16:34:27.588Z,56.01
2023-03-16T16:36:56.274Z,55.97
2023-03-16T16:39:23.754Z,56.08
2023-03-16T16:41:54.941Z,55.87
2023-03-16T16:44:23.846Z,56.19
2023-03-16T16:46:52.552Z,55.71
2023-03-16T16:49:31.072Z,55.66
2023-03-16T16:51:58.633Z,55.56
2023-03-16T16:54:29.248Z,54.96
2023-03-16T16:56:58.221Z,54.91
2023-03-16T16:59:38.262Z,54.74
2023-03-16T17:02:22.853Z,54.49
2023-03-16T17:04:51.156Z,54.27
2023-03-16T17:07:18.346Z,54.44
2023-03-16T17:09:45.480Z,54.11
2023-03-16T17:12:22.986Z,53.80
2023-03-16T17:14:50.994Z,53.84
2023-03-16T17:17:18.776Z,53.92
2023-03-16T17:19:47.301Z,53.51
2023-03-16T17:22:25.035Z,53.49
2023-03-16T17:24:52.826Z,53.52
2023-03-16T17:27:27.363Z,53.45
2023-03-16T17:29:55.826Z,53.24
2023-03-16T17:32:23.583Z,53.60
2023-03-16T17:34:51.316Z,54.14
2023-03-16T17:37:21.408Z,54.53
2023-03-16T17:39:48.627Z,54.48
2023-03-16T17:42:18.817Z,54.57
2023-03-16T17:44:49.027Z,54.46
2023-03-16T17:47:27.922Z,54.27
2023-03-16T17:49:55.331Z,54.22
2023-03-16T17:52:25.791Z,54.27
2023-03-16T17:54:54.057Z,54.31
2023-03-16T17:57:32.522Z,54.47
2023-03-16T18:00:03.285Z,54.23
2023-03-16T18:02:51.958Z,53.92
2023-03-16T18:05:27.619Z,53.69
2023-03-16T18:07:56.921Z,53.59
2023-03-16T18:10:29.142Z,53.45
2023-03-16T18:13:18.032Z,53.47
2023-03-16T18:15:47.210Z,53.18
2023-03-16T18:18:22.131Z,53.65
2023-03-16T18:20:51.276Z,54.12
2023-03-16T18:23:30.349Z,53.96
2023-03-16T18:26:03.796Z,54.33
2023-03-16T18:28:32.410Z,54.42
2023-03-16T18:31:00.795Z,53.80
2023-03-16T18:33:33.110Z,53.90
2023-03-16T18:36:03.730Z,53.77
2023-03-16T18:38:33.893Z,53.67
2023-03-16T18:41:03.044Z,53.53
2023-03-16T18:43:29.980Z,53.31
2023-03-16T18:45:57.275Z,53.12
2023-03-16T18:48:33.503Z,53.00
2023-03-16T18:51:01.229Z,52.92
2023-03-16T18:53:29.372Z,52.74
2023-03-16T18:55:57.632Z,52.99
2023-03-16T18:58:25.635Z,52.52
2023-03-16T19:00:58.472Z,52.78
2023-03-16T19:03:25.821Z,52.55
2023-03-16T19:05:54.749Z,52.65
2023-03-16T19:08:22.418Z,52.95
2023-03-16T19:10:54.006Z,53.13
2023-03-16T19:13:22.172Z,53.09
2023-03-16T19:15:52.505Z,52.61
2023-03-16T19:18:19.958Z,52.67
2023-03-16T19:20:50.239Z,52.31
2023-03-16T19:23:26.203Z,52.13
2023-03-16T19:25:54.847Z,52.11
2023-03-16T19:28:39.766Z,52.27
2023-03-16T19:31:17.005Z,52.35
2023-03-16T19:33:44.288Z,52.38
2023-03-16T19:36:24.637Z,51.86
2023-03-16T19:38:52.701Z,51.94
2023-03-16T19:41:31.201Z,51.82
2023-03-16T19:44:06.651Z,51.59
2023-03-16T19:46:33.894Z,51.70
2023-03-16T19:49:01.585Z,51.65
2023-03-16T19:51:29.580Z,51.62
2023-03-16T19:53:57.045Z,51.60
2023-03-16T19:56:26.935Z,51.40
2023-03-16T19:58:55.115Z,51.48
2023-03-16T20:01:30.436Z,51.61
2023-03-16T20:03:59.889Z,51.85
2023-03-16T20:06:27.656Z,51.42
2023-03-16T20:09:16.263Z,51.45
2023-03-16T20:11:45.595Z,51.50
2023-03-16T20:14:32.383Z,51.36
2023-03-16T20:17:00.907Z,51.32
2023-03-16T20:19:29.347Z,51.61
2023-03-16T20:21:57.890Z,51.63
2023-03-16T20:24:28.436Z,51.77
2023-03-16T20:26:55.518Z,51.93
2023-03-16T20:29:35.156Z,52.15
2023-03-16T20:32:07.582Z,52.05
2023-03-16T20:34:35.008Z,51.84
2023-03-16T20:37:02.862Z,51.77
2023-03-16T20:39:30.013Z,52.20
2023-03-16T20:41:57.430Z,52.00
2023-03-16T20:44:25.776Z,52.20
2023-03-16T20:46:52.947Z,51.90
2023-03-16T20:49:23.342Z,51.83
2023-03-16T20:51:52.997Z,51.75
2023-03-16T20:54:23.617Z,51.55
2023-03-16T20:56:52.035Z,51.56
2023-03-16T20:59:24.334Z,51.44
2023-03-16T21:01:55.206Z,51.32
2023-03-16T21:04:26.237Z,51.19
2023-03-16T21:06:54.733Z,50.72
2023-03-16T21:09:23.695Z,50.43
2023-03-16T21:11:51.804Z,50.69
2023-03-16T21:14:23.834Z,50.17
2023-03-16T21:16:51.802Z,49.93
2023-03-16T21:19:21.578Z,49.75
2023-03-16T21:21:52.198Z,49.82
2023-03-16T21:24:19.737Z,49.44
2023-03-16T21:26:47.760Z,49.64
2023-03-16T21:29:19.050Z,49.42
2023-03-16T21:31:46.484Z,49.19
2023-03-16T21:34:27.672Z,49.08
2023-03-16T21:36:54.836Z,49.11
2023-03-16T21:39:25.599Z,49.55
2023-03-16T21:41:54.744Z,49.64
2023-03-16T21:44:22.156Z,49.44
2023-03-16T21:46:52.930Z,48.58
2023-03-16T21:49:22.165Z,48.46
2023-03-16T21:51:51.574Z,48.58
2023-03-16T21:54:19.990Z,48.69
2023-03-16T21:56:50.823Z,48.52
2023-03-16T21:59:18.129Z,48.42
2023-03-16T22:02:00.769Z,48.46
2023-03-16T22:04:29.471Z,48.48
2023-03-16T22:06:56.495Z,48.04
2023-03-16T22:09:25.353Z,47.87
2023-03-16T22:11:52.564Z,47.94
2023-03-16T22:14:19.732Z,47.70
2023-03-16T22:16:47.001Z,47.66
2023-03-16T22:19:18.260Z,47.87
2023-03-16T22:21:47.538Z,47.55
2023-03-16T22:24:19.981Z,47.48
2023-03-16T22:26:49.509Z,47.62
2023-03-16T22:29:31.429Z,48.23
2023-03-16T22:32:05.673Z,48.34
2023-03-16T22:34:46.723Z,48.39
2023-03-16T22:37:19.043Z,48.56
2023-03-16T22:39:46.444Z,47.20
2023-03-16T22:42:19.624Z,48.15
2023-03-16T22:44:47.257Z,48.57
2023-03-16T22:47:26.665Z,48.53
2023-03-16T22:49:54.280Z,48.65
2023-03-16T22:52:28.599Z,48.67
2023-03-16T22:54:56.236Z,48.64
2023-03-16T22:57:23.315Z,48.77
2023-03-16T22:59:51.309Z,48.76
2023-03-16T23:02:21.233Z,48.79
2023-03-16T23:04:48.136Z,48.83
2023-03-16T23:07:15.364Z,49.01
2023-03-16T23:09:42.312Z,48.85
2023-03-16T23:12:19.638Z,49.13
2023-03-16T23:14:46.603Z,49.14
2023-03-16T23:17:22.827Z,49.35
2023-03-16T23:19:49.811Z,49.01
2023-03-16T23:22:17.281Z,49.39
2023-03-16T23:24:44.179Z,49.37
2023-03-16T23:27:20.094Z,49.57
2023-03-16T23:29:47.195Z,49.70
2023-03-16T23:32:17.271Z,49.58
2023-03-16T23:34:44.754Z,49.72
2023-03-16T23:37:12.189Z,49.70
2023-03-16T23:39:40.100Z,49.71
2023-03-16T23:42:07.797Z,49.70
2023-03-16T23:44:35.056Z,49.83
2023-03-16T23:47:02.426Z,49.96
2023-03-16T23:49:33.060Z,50.05
2023-03-16T23:52:01.920Z,49.97
2023-03-16T23:54:31.898Z,50.02
2023-03-16T23:56:59.574Z,50.15
2023-03-16T23:59:26.883Z,50.19
